ADDS METAR Data INFO
IDs: Format: Raw Decoded Include TAF

Data at: 0427 UTC 21 Jan 2018

METAR for:KUNI (Albany/Ohio Univ Arp, OH, US)
Text:KUNI 210415Z AUTO 00000KT 10SM BKN019 OVC038 07/02 A3014 RMK AO2 T00680017
Temperature: 6.8°C ( 44°F)
Dewpoint: 1.7°C ( 35°F) [RH = 70%]
Pressure (altimeter):30.14 inches Hg (1020.7 mb)
Winds:calm
Visibility:10 or more sm (16+ km)
Ceiling:1900 feet AGL
Clouds: broken clouds at 1900 feet AGL, overcast cloud deck at 3800 feet AGL
QC Flag:automated observation with no human augmentation